Grand Forks, North Dakota
Current Conditions -  °F | °C
As of 9:53 PM on Saturday 20 Dec 2014 (Local Time) from KGFK Reporting Station
Haze Haze  
Wind Chill: 20°   Ceiling: 600
Heat Index: 31°   Visibility: 5mi
Dew Point: 29°   Wind: 16mph
Humidity: 92%   Direction: 180°S
Pressure: 29.87"   Gusts: NA
Location:  47.92°N, 97.03°W
Report Text: KGFK 210353Z 18014KT 5SM BR OVC006 M01/M02 A2987 RMK AO2 SNE20 SLP128 P0001 T10061017 $
Loading
Personal Weather Stations






























Interactive Weather Map New forecast layout! Learn more

10-Day Weather Forecast

Advertisements
Track Severe Weather on mobile